Corona — V7EL5 — position and weather

sailwx.info

Track history (hours):
 
Tides and Currents Weather Stations Pressure Air Temp Water Temp Dewpoint Dewpoint Depression Visibility Wind Speed Wind Dir Waves Ship Positions

Corona

Last reported at 2017-Nov-28 23:45 UTC. Time now 2017-Dec-11 17:09 UTC.
Position N 27°30' W 015°16'.
Warning: this ship's position is 12 days out of date.

Length 187 m; draft 9.6 m.

Type: Cargo ship. MMSI: 538005490.

Date/timePositionNaut miles runAvg speedWind from/ knotsBaromVisibWave heightAir tempDewpointWater temp
2017-Nov-28 23:45N 27°30' W 015°16'313.5
2017-Nov-28 23:30N 27°33' W 015°15'713.3
2017-Nov-28 23:00N 27°39' W 015°12'613.0
2017-Nov-28 22:30N 27°45' W 015°10'713.2
2017-Nov-28 22:00N 27°52' W 015°07'713.6
2017-Nov-28 21:30N 27°58' W 015°04'713.4
2017-Nov-28 21:00N 28°04' W 015°02'612.6
2017-Nov-28 20:30N 28°10' W 014°59'612.9
2017-Nov-28 20:00N 28°16' W 014°57'612.9
2017-Nov-28 19:30N 28°23' W 014°55'612.8
2017-Nov-28 19:00N 28°29' W 014°53'713.2
2017-Nov-28 18:30N 28°35' W 014°51'613.1
2017-Nov-28 18:00N 28°41' W 014°49'713.0
2017-Nov-28 17:30N 28°48' W 014°47'612.9
2017-Nov-28 17:00N 28°54' W 014°45'713.1
2017-Nov-28 16:30N 29°00' W 014°43'713.1
2017-Nov-28 16:00N 29°06' W 014°41'1313.1
2017-Nov-28 15:00N 29°19' W 014°37'713.2
2017-Nov-28 14:30N 29°25' W 014°35'612.9
2017-Nov-28 14:00N 29°32' W 014°33'612.8
2017-Nov-28 13:30N 29°38' W 014°31'612.8
2017-Nov-28 13:00N 29°44' W 014°29'612.8
2017-Nov-28 12:30N 29°50' W 014°27'612.5
2017-Nov-28 12:00N 29°56' W 014°26'612.6
2017-Nov-28 11:30N 30°02' W 014°24'612.9
2017-Nov-28 11:00N 30°09' W 014°22'612.9
2017-Nov-28 10:30N 30°15' W 014°20'612.9
2017-Nov-28 10:00N 30°21' W 014°18'612.7
2017-Nov-28 09:30N 30°27' W 014°16'612.7
2017-Nov-28 09:00N 30°33' W 014°14'712.8
2017-Nov-28 08:26N 30°40' W 014°12'1612.6
2017-Nov-28 07:09N 30°56' W 014°07'212.6
2017-Nov-28 06:58N 30°58' W 014°06'13813.1
2017-Nov-27 20:28N 33°11' W 013°24'8412.9
2017-Nov-27 13:57N 34°32' W 012°57'  
2017-Nov-24 05:17N 49°48' W 003°26'312.8
2017-Nov-24 05:00N 49°50' W 003°21'713.0
2017-Nov-24 04:27N 49°54' W 003°12'613.2
2017-Nov-24 04:00N 49°57' W 003°04'613.0
2017-Nov-24 03:30N 49°59' W 002°54'713.1
2017-Nov-24 03:00N 50°01' W 002°44'712.9
2017-Nov-24 02:25N 50°03' W 002°33'2311.6
2017-Nov-24 00:25N 50°09' W 001°58'410.0
2017-Nov-24 00:00N 50°10' W 001°52'5 9.6
2017-Nov-23 23:30N 50°11' W 001°45'5 9.2
2017-Nov-23 23:00N 50°12' W 001°38'4 8.9
2017-Nov-23 22:30N 50°13' W 001°31'4 8.7
2017-Nov-23 22:01N 50°14' W 001°25'4 8.7
2017-Nov-23 21:30N 50°16' W 001°18'3311.2
2017-Nov-23 18:35N 50°24' W 000°29'112.6
2017-Nov-23 18:31N 50°24' W 000°27'612.6
2017-Nov-23 18:00N 50°26' W 000°18'612.5
2017-Nov-23 17:30N 50°27' W 000°08'612.1
2017-Nov-23 17:01N 50°29' E 000°01'611.8
2017-Nov-23 16:30N 50°30' E 000°10'611.4
2017-Nov-23 16:00N 50°32' E 000°19'511.0
2017-Nov-23 15:30N 50°33' E 000°27'510.5
2017-Nov-23 15:00N 50°36' E 000°34'510.2
2017-Nov-23 14:31N 50°39' E 000°41'5 9.8
2017-Nov-23 14:01N 50°42' E 000°47'5 9.5
2017-Nov-23 13:31N 50°44' E 000°54'5 9.4
2017-Nov-23 13:01N 50°47' E 000°60'5 9.3
2017-Nov-23 12:30N 50°50' E 001°06'5 9.4
2017-Nov-23 12:01N 50°52' E 001°12'5 9.5
2017-Nov-23 11:30N 50°55' E 001°18'510.2
2017-Nov-23 11:01N 50°59' E 001°23'510.7
2017-Nov-23 10:30N 51°03' E 001°29'510.7
2017-Nov-23 10:01N 51°06' E 001°35'611.3
2017-Nov-23 09:30N 51°11' E 001°41'611.2
2017-Nov-23 09:01N 51°15' E 001°47'510.9
2017-Nov-23 08:31N 51°19' E 001°52'510.5
2017-Nov-23 08:00N 51°24' E 001°57'5 9.9
2017-Nov-23 07:31N 51°28' E 002°01'5 9.4
2017-Nov-23 07:00N 51°31' E 002°06'4 8.6
2017-Nov-23 06:30N 51°35' E 002°10'4 8.4
2017-Nov-23 06:00N 51°38' E 002°15'9 8.5
2017-Nov-23 04:55N 51°45' E 002°24'70 9.4
2017-Nov-22 21:28N 52°40' E 003°35'510.0
2017-Nov-22 20:57N 52°44' E 003°40'  
2017-Nov-20 00:29N 55°32' E 014°54'712.7
2017-Nov-19 23:57N 55°35' E 015°05'612.8
2017-Nov-19 23:30N 55°37' E 015°15'612.9
2017-Nov-19 23:00N 55°39' E 015°25'713.1
2017-Nov-19 22:30N 55°42' E 015°36'613.0
2017-Nov-19 22:01N 55°44' E 015°47'713.2
2017-Nov-19 21:30N 55°46' E 015°58'713.3
2017-Nov-19 21:00N 55°49' E 016°09'713.2
2017-Nov-19 20:30N 55°51' E 016°20'613.0
2017-Nov-19 20:00N 55°53' E 016°31'613.0
2017-Nov-19 19:30N 55°56' E 016°42'  
Track history (hours):
 
Tides and Currents Weather Stations Pressure Air Temp Water Temp Dewpoint Dewpoint Depression Visibility Wind Speed Wind Dir Waves Ship Positions

Corona

Last reported at 2017-Nov-28 23:45 UTC. Time now 2017-Dec-11 17:09 UTC.
Position N 27°30' W 015°16'.
Warning: this ship's position is 12 days out of date.

Length 187 m; draft 9.6 m.

Type: Cargo ship. MMSI: 538005490.

Date/timePositionNaut miles runAvg speedWind from/ knotsBaromVisibWave heightAir tempDewpointWater temp
2017-Nov-28 23:45N 27°30' W 015°16'313.5
2017-Nov-28 23:30N 27°33' W 015°15'713.3
2017-Nov-28 23:00N 27°39' W 015°12'613.0
2017-Nov-28 22:30N 27°45' W 015°10'713.2
2017-Nov-28 22:00N 27°52' W 015°07'713.6
2017-Nov-28 21:30N 27°58' W 015°04'713.4
2017-Nov-28 21:00N 28°04' W 015°02'612.6
2017-Nov-28 20:30N 28°10' W 014°59'612.9
2017-Nov-28 20:00N 28°16' W 014°57'612.9
2017-Nov-28 19:30N 28°23' W 014°55'612.8
2017-Nov-28 19:00N 28°29' W 014°53'713.2
2017-Nov-28 18:30N 28°35' W 014°51'613.1
2017-Nov-28 18:00N 28°41' W 014°49'713.0
2017-Nov-28 17:30N 28°48' W 014°47'612.9
2017-Nov-28 17:00N 28°54' W 014°45'713.1
2017-Nov-28 16:30N 29°00' W 014°43'713.1
2017-Nov-28 16:00N 29°06' W 014°41'1313.1
2017-Nov-28 15:00N 29°19' W 014°37'713.2
2017-Nov-28 14:30N 29°25' W 014°35'612.9
2017-Nov-28 14:00N 29°32' W 014°33'612.8
2017-Nov-28 13:30N 29°38' W 014°31'612.8
2017-Nov-28 13:00N 29°44' W 014°29'612.8
2017-Nov-28 12:30N 29°50' W 014°27'612.5
2017-Nov-28 12:00N 29°56' W 014°26'612.6
2017-Nov-28 11:30N 30°02' W 014°24'612.9
2017-Nov-28 11:00N 30°09' W 014°22'612.9
2017-Nov-28 10:30N 30°15' W 014°20'612.9
2017-Nov-28 10:00N 30°21' W 014°18'612.7
2017-Nov-28 09:30N 30°27' W 014°16'612.7
2017-Nov-28 09:00N 30°33' W 014°14'712.8
2017-Nov-28 08:26N 30°40' W 014°12'1612.6
2017-Nov-28 07:09N 30°56' W 014°07'212.6
2017-Nov-28 06:58N 30°58' W 014°06'13813.1
2017-Nov-27 20:28N 33°11' W 013°24'8412.9
2017-Nov-27 13:57N 34°32' W 012°57'  
2017-Nov-24 05:17N 49°48' W 003°26'312.8
2017-Nov-24 05:00N 49°50' W 003°21'713.0
2017-Nov-24 04:27N 49°54' W 003°12'613.2
2017-Nov-24 04:00N 49°57' W 003°04'613.0
2017-Nov-24 03:30N 49°59' W 002°54'713.1
2017-Nov-24 03:00N 50°01' W 002°44'712.9
2017-Nov-24 02:25N 50°03' W 002°33'2311.6
2017-Nov-24 00:25N 50°09' W 001°58'410.0
2017-Nov-24 00:00N 50°10' W 001°52'5 9.6
2017-Nov-23 23:30N 50°11' W 001°45'5 9.2
2017-Nov-23 23:00N 50°12' W 001°38'4 8.9
2017-Nov-23 22:30N 50°13' W 001°31'4 8.7
2017-Nov-23 22:01N 50°14' W 001°25'4 8.7
2017-Nov-23 21:30N 50°16' W 001°18'3311.2
2017-Nov-23 18:35N 50°24' W 000°29'112.6
2017-Nov-23 18:31N 50°24' W 000°27'612.6
2017-Nov-23 18:00N 50°26' W 000°18'612.5
2017-Nov-23 17:30N 50°27' W 000°08'612.1
2017-Nov-23 17:01N 50°29' E 000°01'611.8
2017-Nov-23 16:30N 50°30' E 000°10'611.4
2017-Nov-23 16:00N 50°32' E 000°19'511.0
2017-Nov-23 15:30N 50°33' E 000°27'510.5
2017-Nov-23 15:00N 50°36' E 000°34'510.2
2017-Nov-23 14:31N 50°39' E 000°41'5 9.8
2017-Nov-23 14:01N 50°42' E 000°47'5 9.5
2017-Nov-23 13:31N 50°44' E 000°54'5 9.4
2017-Nov-23 13:01N 50°47' E 000°60'5 9.3
2017-Nov-23 12:30N 50°50' E 001°06'5 9.4
2017-Nov-23 12:01N 50°52' E 001°12'5 9.5
2017-Nov-23 11:30N 50°55' E 001°18'510.2
2017-Nov-23 11:01N 50°59' E 001°23'510.7
2017-Nov-23 10:30N 51°03' E 001°29'510.7
2017-Nov-23 10:01N 51°06' E 001°35'611.3
2017-Nov-23 09:30N 51°11' E 001°41'611.2
2017-Nov-23 09:01N 51°15' E 001°47'510.9
2017-Nov-23 08:31N 51°19' E 001°52'510.5
2017-Nov-23 08:00N 51°24' E 001°57'5 9.9
2017-Nov-23 07:31N 51°28' E 002°01'5 9.4
2017-Nov-23 07:00N 51°31' E 002°06'4 8.6
2017-Nov-23 06:30N 51°35' E 002°10'4 8.4
2017-Nov-23 06:00N 51°38' E 002°15'9 8.5
2017-Nov-23 04:55N 51°45' E 002°24'70 9.4
2017-Nov-22 21:28N 52°40' E 003°35'510.0
2017-Nov-22 20:57N 52°44' E 003°40'  
2017-Nov-20 00:29N 55°32' E 014°54'712.7
2017-Nov-19 23:57N 55°35' E 015°05'612.8
2017-Nov-19 23:30N 55°37' E 015°15'612.9
2017-Nov-19 23:00N 55°39' E 015°25'713.1
2017-Nov-19 22:30N 55°42' E 015°36'613.0
2017-Nov-19 22:01N 55°44' E 015°47'713.2
2017-Nov-19 21:30N 55°46' E 015°58'713.3
2017-Nov-19 21:00N 55°49' E 016°09'713.2
2017-Nov-19 20:30N 55°51' E 016°20'613.0
2017-Nov-19 20:00N 55°53' E 016°31'613.0
2017-Nov-19 19:30N 55°56' E 016°42'  

Dump ship's entire track history